createdAt,value
2023-01-17T00:05:11.111Z,99961.53
2023-01-17T00:10:16.212Z,99959.94
2023-01-17T00:15:20.159Z,99951.19
2023-01-17T00:20:45.127Z,99936.28
2023-01-17T00:26:05.716Z,99938.69
2023-01-17T00:31:09.576Z,99906.94
2023-01-17T00:36:12.244Z,99898.88
2023-01-17T00:41:15.633Z,99892.47
2023-01-17T00:46:36.665Z,99891.63
2023-01-17T00:51:58.135Z,99891.91
2023-01-17T00:57:18.943Z,99850.13
2023-01-17T01:02:40.275Z,99861.97
2023-01-17T01:08:01.049Z,99846.09
2023-01-17T01:13:21.410Z,99849.59
2023-01-17T01:18:42.215Z,99815.94
2023-01-17T01:24:02.764Z,99806.88
2023-01-17T01:29:23.304Z,99783.06
2023-01-17T01:34:25.634Z,99757.75
2023-01-17T01:39:28.158Z,99761.19
2023-01-17T01:44:51.339Z,99766.63
2023-01-17T01:49:53.464Z,99766.47
2023-01-17T01:55:01.059Z,99755.09
2023-01-17T02:00:08.660Z,99764.69
2023-01-17T02:05:17.016Z,99741.59
2023-01-17T02:10:19.322Z,99724.03
2023-01-17T02:15:26.593Z,99693.56
2023-01-17T02:20:52.637Z,99703.59
2023-01-17T02:26:12.555Z,99718.50
2023-01-17T02:31:56.095Z,99717.66
2023-01-17T02:37:04.243Z,99706.22
2023-01-17T02:42:14.758Z,99683.41
2023-01-17T02:47:31.936Z,99688.81
2023-01-17T02:52:42.728Z,99669.47
2023-01-17T02:58:02.883Z,99658.75
2023-01-17T03:03:36.955Z,99655.97
2023-01-17T03:08:44.828Z,99666.69
2023-01-17T03:13:46.823Z,99658.63
2023-01-17T03:18:49.463Z,99667.41
2023-01-17T03:23:52.095Z,99633.84
2023-01-17T03:28:54.299Z,99629.41
2023-01-17T03:33:56.327Z,99632.88
2023-01-17T03:38:58.448Z,99624.25
2023-01-17T03:44:01.093Z,99618.81
2023-01-17T03:49:03.119Z,99613.53
2023-01-17T03:54:05.553Z,99606.28
2023-01-17T03:59:07.605Z,99611.72
2023-01-17T04:04:09.810Z,99603.63
2023-01-17T04:09:11.998Z,99600.13
2023-01-17T04:14:14.134Z,99578.97
2023-01-17T04:19:16.395Z,99583.31
2023-01-17T04:24:18.527Z,99573.69
2023-01-17T04:29:21.148Z,99569.25
2023-01-17T04:34:23.585Z,99585.94
2023-01-17T04:39:25.797Z,99582.47
2023-01-17T04:44:27.949Z,99571.03
2023-01-17T04:49:30.095Z,99563.94
2023-01-17T04:54:32.116Z,99556.00
2023-01-17T04:59:34.122Z,99562.16
2023-01-17T05:04:36.245Z,99546.97
2023-01-17T05:09:38.338Z,99550.47
2023-01-17T05:14:40.493Z,99534.59
2023-01-17T05:19:42.583Z,99523.03
2023-01-17T05:24:46.221Z,99545.16
2023-01-17T05:29:48.337Z,99542.53
2023-01-17T05:34:51.220Z,99545.16
2023-01-17T05:39:53.299Z,99533.75
2023-01-17T05:44:55.396Z,99543.50
2023-01-17T05:49:57.447Z,99530.97
2023-01-17T05:54:59.453Z,99548.66
2023-01-17T06:00:01.629Z,99551.31
2023-01-17T06:05:04.326Z,99544.03
2023-01-17T06:10:06.892Z,99545.72
2023-01-17T06:15:09.388Z,99545.72
2023-01-17T06:20:12.786Z,99552.81
2023-01-17T06:25:14.863Z,99545.84
2023-01-17T06:30:17.359Z,99559.06
2023-01-17T06:35:19.913Z,99564.34
2023-01-17T06:40:22.809Z,99553.78
2023-01-17T06:45:24.812Z,99557.25
2023-01-17T06:50:27.370Z,99566.03
2023-01-17T06:55:31.205Z,99570.34
2023-01-17T07:00:35.317Z,99552.53
2023-01-17T07:05:37.605Z,99542.09
2023-01-17T07:10:39.600Z,99546.56
2023-01-17T07:15:41.741Z,99554.63
2023-01-17T07:20:44.118Z,99563.41
2023-01-17T07:26:12.419Z,99547.69
2023-01-17T07:31:14.658Z,99542.41
2023-01-17T07:36:16.680Z,99539.59
2023-01-17T07:41:18.683Z,99533.31
2023-01-17T07:46:20.771Z,99528.88
2023-01-17T07:51:22.909Z,99533.19
2023-01-17T07:56:25.368Z,99532.22
2023-01-17T08:01:27.820Z,99534.03
2023-01-17T08:06:30.288Z,99530.41
2023-01-17T08:11:32.319Z,99545.59
2023-01-17T08:16:34.447Z,99570.34
2023-01-17T08:21:36.574Z,99557.97
2023-01-17T08:26:38.711Z,99544.59
2023-01-17T08:31:41.013Z,99554.34
2023-01-17T08:36:44.281Z,99541.13
2023-01-17T08:41:46.427Z,99551.56
2023-01-17T08:46:49.281Z,99562.00
2023-01-17T08:51:52.838Z,99562.28
2023-01-17T08:56:55.813Z,99554.34
2023-01-17T09:01:59.011Z,99537.66
2023-01-17T09:07:01.202Z,99545.59
2023-01-17T09:12:03.551Z,99534.16
2023-01-17T09:17:08.695Z,99535.97
2023-01-17T09:22:11.615Z,99544.59
2023-01-17T09:27:13.655Z,99539.59
2023-01-17T09:32:17.291Z,99548.34
2023-01-17T09:37:19.391Z,99544.75
2023-01-17T09:42:24.336Z,99552.41
2023-01-17T09:47:31.971Z,99558.50
2023-01-17T09:52:34.153Z,99542.81
2023-01-17T09:58:03.751Z,99548.22
2023-01-17T10:03:14.872Z,99553.38
2023-01-17T10:08:40.808Z,99557.72
2023-01-17T10:13:58.014Z,99563.00
2023-01-17T10:19:17.262Z,99571.75
2023-01-17T10:24:30.881Z,99575.38
2023-01-17T10:29:36.397Z,99566.59
2023-01-17T10:34:44.472Z,99567.44
2023-01-17T10:39:49.213Z,99588.44
2023-01-17T10:44:59.375Z,99570.94
2023-01-17T10:50:05.260Z,99570.63
2023-01-17T10:55:19.579Z,99546.00
2023-01-17T11:00:52.755Z,99550.44
2023-01-17T11:06:24.022Z,99544.19
2023-01-17T11:11:32.921Z,99527.47
2023-01-17T11:16:37.410Z,99508.13
2023-01-17T11:21:41.103Z,99495.59
2023-01-17T11:26:49.683Z,99508.81
2023-01-17T11:31:51.805Z,99503.53
2023-01-17T11:37:20.658Z,99506.31
2023-01-17T11:42:37.774Z,99517.84
2023-01-17T11:47:39.861Z,99530.94
2023-01-17T11:52:41.904Z,99515.91
2023-01-17T11:57:50.798Z,99485.97
2023-01-17T12:02:55.816Z,99511.31
2023-01-17T12:08:14.596Z,99504.38
2023-01-17T12:13:47.273Z,99498.94
2023-01-17T12:18:53.629Z,99517.28
2023-01-17T12:24:04.849Z,99505.75
2023-01-17T12:29:39.096Z,99500.19
2023-01-17T12:34:50.955Z,99511.72
2023-01-17T12:40:23.920Z,99505.59
2023-01-17T12:45:38.507Z,99475.13
2023-01-17T12:50:55.932Z,99477.34
2023-01-17T12:56:06.812Z,99473.72
2023-01-17T13:01:20.692Z,99471.06
2023-01-17T13:06:32.094Z,99602.25
2023-01-17T13:11:46.195Z,99605.72
2023-01-17T13:17:25.689Z,99595.84
2023-01-17T13:22:29.129Z,99614.38
2023-01-17T13:27:43.941Z,99601.28
2023-01-17T13:33:15.571Z,99565.91
2023-01-17T13:38:40.029Z,99568.53
2023-01-17T13:44:07.493Z,99560.59
2023-01-17T13:49:42.744Z,99582.03
2023-01-17T13:54:47.755Z,99574.81
2023-01-17T13:59:50.260Z,99579.25
2023-01-17T14:05:12.600Z,99554.91
2023-01-17T14:10:41.864Z,99553.09
2023-01-17T14:15:51.191Z,99550.59
2023-01-17T14:21:07.167Z,99575.38
2023-01-17T14:26:18.053Z,99581.63
2023-01-17T14:31:22.861Z,99574.53
2023-01-17T14:36:32.568Z,99582.59
2023-01-17T14:41:35.173Z,99596.84
2023-01-17T14:46:37.319Z,99594.72
2023-01-17T14:51:39.409Z,99595.44
2023-01-17T14:56:41.601Z,99591.94
2023-01-17T15:02:06.294Z,99590.53
2023-01-17T15:07:17.021Z,99591.53
2023-01-17T15:12:19.739Z,99600.44
2023-01-17T15:17:26.657Z,99632.88
2023-01-17T15:22:30.168Z,99631.78
2023-01-17T15:27:32.812Z,99667.00
2023-01-17T15:32:34.999Z,99645.72
2023-01-17T15:37:40.728Z,99706.41
2023-01-17T15:42:43.891Z,99705.31
2023-01-17T15:47:46.855Z,99683.31
2023-01-17T15:52:54.179Z,99699.31
2023-01-17T15:57:56.494Z,99684.44
2023-01-17T16:02:59.736Z,99706.41
2023-01-17T16:08:01.810Z,99701.28
2023-01-17T16:13:09.182Z,99732.06
2023-01-17T16:18:21.990Z,99733.72
2023-01-17T16:23:24.163Z,99723.84
2023-01-17T16:28:26.211Z,99762.44
2023-01-17T16:33:28.295Z,99752.81
2023-01-17T16:38:32.353Z,99749.44
2023-01-17T16:43:34.534Z,99744.75
2023-01-17T16:48:37.589Z,99752.69
2023-01-17T16:53:39.632Z,99761.28
2023-01-17T16:58:42.293Z,99762.44
2023-01-17T17:03:44.934Z,99750.84
2023-01-17T17:08:47.802Z,99787.22
2023-01-17T17:13:51.190Z,99780.13
2023-01-17T17:19:02.584Z,99774.13
2023-01-17T17:24:05.149Z,99768.81
2023-01-17T17:29:10.752Z,99776.75
2023-01-17T17:34:14.533Z,99811.16
2023-01-17T17:39:16.764Z,99806.84
2023-01-17T17:44:18.849Z,99834.13
2023-01-17T17:49:22.932Z,99808.50
2023-01-17T17:54:27.511Z,99808.63
2023-01-17T17:59:30.090Z,99812.13
2023-01-17T18:04:32.397Z,99825.22
2023-01-17T18:09:34.568Z,99821.63
2023-01-17T18:14:37.048Z,99819.94
2023-01-17T18:19:39.264Z,99824.53
2023-01-17T18:24:41.348Z,99832.47
2023-01-17T18:29:43.375Z,99828.97
2023-01-17T18:34:45.863Z,99822.59
2023-01-17T18:39:47.982Z,99821.75
2023-01-17T18:44:50.130Z,99840.41
2023-01-17T18:49:53.885Z,99844.84
2023-01-17T18:54:56.062Z,99830.22
2023-01-17T18:59:58.135Z,99830.22
2023-01-17T19:05:01.959Z,99833.84
2023-01-17T19:10:04.398Z,99840.38
2023-01-17T19:15:07.155Z,99846.06
2023-01-17T19:20:10.045Z,99853.16
2023-01-17T19:25:12.330Z,99853.28
2023-01-17T19:30:14.688Z,99859.56
2023-01-17T19:35:17.719Z,99866.66
2023-01-17T19:40:21.012Z,99855.09
2023-01-17T19:45:23.183Z,99864.44
2023-01-17T19:50:25.305Z,99865.41
2023-01-17T19:55:27.395Z,99864.97
2023-01-17T20:00:30.513Z,99863.44
2023-01-17T20:05:33.887Z,99868.84
2023-01-17T20:10:35.963Z,99878.47
2023-01-17T20:15:38.080Z,99883.47
2023-01-17T20:20:56.354Z,99876.25
2023-01-17T20:26:03.646Z,99880.47
2023-01-17T20:31:09.035Z,99879.03
2023-01-17T20:36:15.301Z,99878.34
2023-01-17T20:41:19.820Z,99839.34
2023-01-17T20:46:25.214Z,99857.75
2023-01-17T20:51:29.103Z,99854.00
2023-01-17T20:56:34.686Z,99828.66
2023-01-17T21:01:38.329Z,99871.09
2023-01-17T21:06:42.486Z,99849.09
2023-01-17T21:11:44.567Z,99845.75
2023-01-17T21:16:46.705Z,99928.63
2023-01-17T21:21:50.269Z,99917.75
2023-01-17T21:26:52.702Z,99936.28
2023-01-17T21:31:56.135Z,99939.19
2023-01-17T21:36:58.238Z,99917.88
2023-01-17T21:42:00.359Z,99897.97
2023-01-17T21:47:03.331Z,99889.47
2023-01-17T21:52:05.503Z,99899.88
2023-01-17T21:57:26.423Z,99907.69
2023-01-17T22:02:28.556Z,99913.69
2023-01-17T22:07:30.792Z,99896.03
2023-01-17T22:12:33.268Z,99899.50
2023-01-17T22:17:38.506Z,99890.97
2023-01-17T22:22:40.659Z,99879.69
2023-01-17T22:27:42.730Z,99864.41
2023-01-17T22:32:44.795Z,99860.91
2023-01-17T22:37:47.632Z,99861.63
2023-01-17T22:42:49.780Z,99857.19
2023-01-17T22:47:52.331Z,99838.91
2023-01-17T22:52:54.819Z,99849.78
2023-01-17T22:57:57.302Z,99842.81
2023-01-17T23:03:01.124Z,99836.69
2023-01-17T23:08:03.479Z,99832.22
2023-01-17T23:13:10.510Z,99822.19
2023-01-17T23:18:31.164Z,99839.19
2023-01-17T23:23:33.312Z,99828.75
2023-01-17T23:28:35.327Z,99809.09
2023-01-17T23:33:37.402Z,99815.25
2023-01-17T23:38:43.837Z,99800.19
2023-01-17T23:43:50.954Z,99809.94
2023-01-17T23:48:53.127Z,99801.03
2023-01-17T23:54:05.420Z,99817.03
2023-01-17T23:59:07.934Z,99792.28
